Packwood, WA (98361)

2:39 PM PDT on March 26, 2017 (GMT -0700)
Cowlitz Vista | | Change Station

Elev 1188 ft 46.62 °N, 121.67 °W | Updated 49 seconds ago

Rain
Rain
43.0 °F
Feels Like 43 °F
N
2.0
Wind Variable Wind from North

Today
High -- | Low -- °F
--% Chance of Precip.
Yesterday
High -- | Low -- °F
Precip. -- in
Pressure 29.76 in
Visibility 4.0 miles
Clouds
Windchill 43 °F
Dew Point 42 °F
Humidity 98%
Rainfall 0.27 in
Snow Depth Not available.
6:57 AM 7:28 PM
Waning Crescent, 2% visible
METAR KPLU 262115Z AUTO 00000KT 4SM -DZ 08/08 A2976 RMK AO2
Pressure 29.76 in
Visibility 4.0 miles
Clouds
Windchill 43 °F
Dew Point 42 °F
Humidity 98%
Rainfall 0.27 in
Snow Depth Not available.
6:57 AM 7:28 PM
Waning Crescent, 2% visible
METAR KPLU 262115Z AUTO 00000KT 4SM -DZ 08/08 A2976 RMK AO2

Get Severe Weather Alerts

Thanks for signing up!

Be on the lookout for a verification email in your inbox.

You'll start receiving the daily forecast at 8 AM.

×

10-Day Weather Forecast

Almanac

Astronomy

Mar. 26, 2017 Rise Set
Actual Time
Civil Twilight
Nautical Twilight
Astronomical Twilight
Moon
Length of Visible Light
Length of Day
Tomorrow will be .
, % of the Moon is Illuminated

Today's Extremes

State Highs State Lows

Community

WunderPhotos

Upload Photos

1,962,540 photos uploaded!

WunderBlog® & News

Nearby

Air Quality

  Air Quality AQ Index Pollutant
Not available.

Snow Depth

Station Depth Elevation

Earthquake Activity

City Distance Mag. Time & Date
Minimum magnitude displayed is 2.5.

Earthquake Activity

City Distance Mag. Time & Date
Minimum magnitude displayed is 2.5.

Coastal Water Temperatures

Place Temperature

Stations

Nearby Weather Stations

Station Location Temp. Windchill Dew Point Humidity Wind Precip. Elev Updated Type
                   

Watches & Warnings

There are currently no watches in effect.